Springfield, Virginia
Current Conditions -  °F | °C
As of 8:09 PM on Monday 26 Jan 2015 (Local Time) from KDAA Reporting Station
Unknown Precip Unknown Precip  
Wind Chill: 24°   Ceiling: 1300
Heat Index: 32°   Visibility: 10mi
Dew Point: 27°   Wind: 10mph
Humidity: 80%   Direction: 340°NNW
Pressure: 29.75"   Gusts: NA
Location:  38.78°N, 77.19°W
Report Text: KDAA 270109Z AUTO 34009KT 10SM UP OVC013 00/M03 A2975 RMK AO2 UPB0110
Loading
Personal Weather Stations






























Interactive Weather Map New forecast layout! Learn more

10-Day Weather Forecast

Advertisements
Track Severe Weather on mobile